^^

Nearby METAR Reports

 

EGAC - Belfast Harbour, United Kingdom
Distance from station: W 8mi, 13km
Updated: 18-02-2019 00:20
Partly cloudy
Partly cloudy
 Wind from S
Wind: S 22 mph , 35 km/h, Gust: 33 mph , 54 km/h
Temperature: 8°C
Wind Chill: 3°C
Dew Point: 4°C
Humidity: 76%
Barometer: 1002 hPa
Clouds: Partly cloudy
Visibility: 6 miles , 10 km
Cloud details: Partly cloudy 945 m
2019/02/18 00:20 EGAC 180020Z AUTO 19019G29KT 9999 SCT031/// 08/04 Q1002
EGAA - Belfast/Aldergro, United Kingdom
Distance from station: W 22mi, 35km
Updated: 18-02-2019 00:20
Mostly cloudy
Mostly cloudy
 Wind from SSW
Wind: SSW 17 mph , 28 km/h, Gust: 30 mph , 48 km/h
Temperature: 8°C
Wind Chill: 4°C
Dew Point: 4°C
Humidity: 76%
Barometer: 1002 hPa
Clouds: Mostly cloudy
Visibility: 6 miles , 10 km
Cloud details: Mostly cloudy 671 m
2019/02/18 00:20 EGAA 180020Z 20015G26KT 9999 BKN022 08/04 Q1002
 
EGNS - Isle Of Man/Rona, United Kingdom
Distance from station: SE 57mi, 91km
Updated: 17-02-2019 23:50
Few Clouds
Few Clouds
 Wind from SSW
Wind: SSW 29 mph , 46 km/h
Temperature: 9°C
Wind Chill: 4°C
Dew Point: 7°C
Humidity: 87%
Barometer: 1005 hPa
Clouds: Few Clouds
Visibility: 6 miles , 10 km
Cloud details: Few Clouds 427 m
2019/02/17 23:50 EGNS 172350Z 21025KT 9999 FEW014 09/07 Q1005
EGPK - Prestwick(Civ/Na, United Kingdom
Distance from station: NE 74mi, 119km
Updated: 17-02-2019 23:50
Partly cloudy
Partly cloudy
 Wind from S
Wind: S 16 mph , 26 km/h
Temperature: 9°C
Wind Chill: 6°C
Dew Point: 6°C
Humidity: 82%
Barometer: 1003 hPa
Clouds: Partly cloudy
Visibility: 6 miles , 10 km
Cloud details: Few Clouds 762 m
Partly cloudy 1311 m
2019/02/17 23:50 EGPK 172350Z 19014KT 9999 FEW025 SCT043 09/06 Q1003
 
EIDW - Dublin Airport, Ireland
Distance from station: SSW 87mi, 141km
Updated: 18-02-2019 00:30
Few Clouds
Few Clouds
 Wind from SSW
Wind: SSW 18 mph , 30 km/h
Temperature: 8°C
Wind Chill: 4°C
Dew Point: 4°C
Humidity: 76%
Barometer: 1004 hPa
Clouds: Few Clouds
Visibility: 6 miles , 10 km
Cloud details: Few Clouds 732 m
2019/02/18 00:30 EIDW 180030Z 21016KT 170V250 9999 FEW024 08/04 Q1004 NOSIG
EGPF - Glasgow Airport, United Kingdom
Distance from station: NNE 98mi, 158km
Updated: 18-02-2019 00:20
Mostly cloudy
Mostly cloudy
 Wind from SSW
Wind: SSW 18 mph , 30 km/h
Temperature: 9°C
Wind Chill: 5°C
Dew Point: 5°C
Humidity: 76%
Barometer: 1002 hPa
Clouds: Mostly cloudy
Visibility: 6 miles , 10 km
Cloud details: Mostly cloudy 975 m
2019/02/18 00:20 EGPF 180020Z AUTO 20016KT 9999 BKN032 09/05 Q1002